createdAt,value
2022-08-17T00:01:32.734Z,28.47
2022-08-17T00:04:19.383Z,26.43
2022-08-17T00:06:46.246Z,27.37
2022-08-17T00:09:19.170Z,36.10
2022-08-17T00:12:40.867Z,38.33
2022-08-17T00:14:36.076Z,36.47
2022-08-17T00:17:04.689Z,36.53
2022-08-17T00:19:32.685Z,37.90
2022-08-17T00:22:34.233Z,38.63
2022-08-17T00:24:47.281Z,40.23
2022-08-17T00:27:13.806Z,41.23
2022-08-17T00:29:40.525Z,41.73
2022-08-17T00:33:12.432Z,39.00
2022-08-17T00:34:53.739Z,35.50
2022-08-17T00:37:20.247Z,38.13
2022-08-17T00:39:46.784Z,40.33
2022-08-17T00:42:15.590Z,42.80
2022-08-17T00:44:42.088Z,38.70
2022-08-17T00:47:08.643Z,40.73
2022-08-17T00:49:35.107Z,41.87
2022-08-17T00:52:11.688Z,43.80
2022-08-17T00:54:42.297Z,38.97
2022-08-17T00:57:13.309Z,41.33
2022-08-17T00:59:44.651Z,38.10
2022-08-17T01:02:13.177Z,35.33
2022-08-17T01:04:39.865Z,32.93
2022-08-17T01:07:06.802Z,36.37
2022-08-17T01:09:33.722Z,36.87
2022-08-17T01:12:00.437Z,35.40
2022-08-17T01:14:26.966Z,33.90
2022-08-17T01:16:55.436Z,35.50
2022-08-17T01:19:25.280Z,34.90
2022-08-17T01:22:01.720Z,34.60
2022-08-17T01:24:28.245Z,38.10
2022-08-17T01:26:56.696Z,38.73
2022-08-17T01:29:24.798Z,41.60
2022-08-17T01:31:55.226Z,42.20
2022-08-17T01:34:21.865Z,45.00
2022-08-17T01:36:49.573Z,42.77
2022-08-17T01:39:49.006Z,45.13
2022-08-17T01:42:27.294Z,41.87
2022-08-17T01:44:59.221Z,35.60
2022-08-17T01:47:25.862Z,41.97
2022-08-17T01:49:52.354Z,39.17
2022-08-17T01:52:19.097Z,39.73
2022-08-17T01:54:47.517Z,40.00
2022-08-17T01:57:14.155Z,39.87
2022-08-17T01:59:40.692Z,39.97
2022-08-17T02:02:07.509Z,47.00
2022-08-17T02:04:34.206Z,42.90
2022-08-17T02:07:00.872Z,37.07
2022-08-17T02:09:29.856Z,39.17
2022-08-17T02:11:58.328Z,42.20
2022-08-17T02:14:25.852Z,48.43
2022-08-17T02:16:53.412Z,51.90
2022-08-17T02:19:20.772Z,48.13
2022-08-17T02:21:48.909Z,41.07
2022-08-17T02:25:01.018Z,56.53
2022-08-17T02:27:21.495Z,56.57
2022-08-17T02:29:47.956Z,57.63
2022-08-17T02:32:27.898Z,57.13
2022-08-17T02:34:55.641Z,54.93
2022-08-17T02:37:22.164Z,58.70
2022-08-17T02:39:48.772Z,54.90
2022-08-17T02:42:15.429Z,57.60
2022-08-17T02:44:42.025Z,59.40
2022-08-17T02:47:09.745Z,62.40
2022-08-17T02:49:36.943Z,62.43
2022-08-17T02:52:07.625Z,58.60
2022-08-17T02:54:39.941Z,62.40
2022-08-17T02:57:09.620Z,66.33
2022-08-17T02:59:38.979Z,68.20
2022-08-17T03:02:11.494Z,61.73
2022-08-17T03:04:38.599Z,77.00
2022-08-17T03:07:05.709Z,66.30
2022-08-17T03:09:32.444Z,63.97
2022-08-17T03:12:17.950Z,91.50
2022-08-17T03:14:44.874Z,72.80
2022-08-17T03:17:15.884Z,80.70
2022-08-17T03:19:44.468Z,51.30
2022-08-17T03:22:36.000Z,97.07
2022-08-17T03:24:57.736Z,84.97
2022-08-17T03:27:24.217Z,91.23
2022-08-17T03:29:50.690Z,90.73
2022-08-17T03:32:17.253Z,52.43
2022-08-17T03:34:43.721Z,49.17
2022-08-17T03:37:10.363Z,49.87
2022-08-17T03:39:36.902Z,41.83
2022-08-17T03:42:31.563Z,47.70
2022-08-17T03:44:59.636Z,43.97
2022-08-17T03:47:44.854Z,40.27
2022-08-17T03:50:38.770Z,89.00
2022-08-17T03:53:30.555Z,71.37
2022-08-17T03:56:23.258Z,47.53
2022-08-17T03:58:50.094Z,81.83
2022-08-17T04:01:17.702Z,80.07
2022-08-17T04:03:44.467Z,83.20
2022-08-17T04:06:10.951Z,42.63
2022-08-17T04:08:37.439Z,45.60
2022-08-17T04:11:03.975Z,45.00
2022-08-17T04:13:30.458Z,61.97
2022-08-17T04:15:59.215Z,63.20
2022-08-17T04:18:26.076Z,65.83
2022-08-17T04:20:53.728Z,74.03
2022-08-17T04:23:20.246Z,72.13
2022-08-17T04:25:49.340Z,50.53
2022-08-17T04:28:17.365Z,57.73
2022-08-17T04:30:45.268Z,52.80
2022-08-17T04:33:14.703Z,39.37
2022-08-17T04:35:47.074Z,41.50
2022-08-17T04:38:17.000Z,114.60
2022-08-17T04:41:02.657Z,85.47
2022-08-17T04:43:31.162Z,91.33
2022-08-17T04:46:00.759Z,62.80
2022-08-17T04:48:36.185Z,45.17
2022-08-17T04:51:15.759Z,45.17
2022-08-17T04:53:45.281Z,40.00
2022-08-17T04:56:16.790Z,39.00
2022-08-17T04:58:45.684Z,39.70
2022-08-17T05:01:12.546Z,54.17
2022-08-17T05:03:39.140Z,44.87
2022-08-17T05:06:05.938Z,41.20
2022-08-17T05:08:32.500Z,38.47
2022-08-17T05:11:00.250Z,54.80
2022-08-17T05:13:28.043Z,35.53
2022-08-17T05:15:56.833Z,51.37
2022-08-17T05:18:24.542Z,45.47
2022-08-17T05:20:51.322Z,43.13
2022-08-17T05:23:21.225Z,49.03
2022-08-17T05:25:50.710Z,37.57
2022-08-17T05:28:19.716Z,32.23
2022-08-17T05:30:50.968Z,34.10
2022-08-17T05:33:20.450Z,36.13
2022-08-17T05:35:49.230Z,35.07
2022-08-17T05:38:17.583Z,32.00
2022-08-17T05:40:44.863Z,36.10
2022-08-17T05:43:14.827Z,26.60
2022-08-17T05:45:55.211Z,24.90
2022-08-17T05:48:36.754Z,26.17
2022-08-17T05:51:34.118Z,27.07
2022-08-17T05:55:04.758Z,32.47
2022-08-17T05:57:55.936Z,29.57
2022-08-17T06:00:30.763Z,29.80
2022-08-17T06:03:11.970Z,30.50
2022-08-17T06:05:57.125Z,30.57
2022-08-17T06:08:34.013Z,27.37
2022-08-17T06:11:36.288Z,28.90
2022-08-17T06:14:07.633Z,24.33
2022-08-17T06:16:37.799Z,27.30
2022-08-17T06:19:17.753Z,27.60
2022-08-17T06:21:47.494Z,27.33
2022-08-17T06:24:27.447Z,26.83
2022-08-17T06:26:57.505Z,24.47
2022-08-17T06:29:41.188Z,26.13
2022-08-17T06:32:09.650Z,27.33
2022-08-17T06:34:39.698Z,27.17
2022-08-17T06:37:37.370Z,26.13
2022-08-17T06:40:22.662Z,27.33
2022-08-17T06:43:07.829Z,28.13
2022-08-17T06:45:59.208Z,29.03
2022-08-17T06:48:33.896Z,29.47
2022-08-17T06:51:11.312Z,30.47
2022-08-17T06:54:05.742Z,29.60
2022-08-17T06:56:53.511Z,31.17
2022-08-17T06:59:26.273Z,32.80
2022-08-17T07:02:05.313Z,33.17
2022-08-17T07:04:33.962Z,31.83
2022-08-17T07:07:27.100Z,32.63
2022-08-17T07:09:56.484Z,34.33
2022-08-17T07:12:26.957Z,33.83
2022-08-17T07:14:59.445Z,33.97
2022-08-17T07:17:47.508Z,32.70
2022-08-17T07:20:17.766Z,32.50
2022-08-17T07:23:15.817Z,31.77
2022-08-17T07:25:42.286Z,29.27
2022-08-17T07:28:08.866Z,29.57
2022-08-17T07:30:47.049Z,31.23
2022-08-17T07:33:27.825Z,32.97
2022-08-17T07:35:55.303Z,29.40
2022-08-17T07:38:26.749Z,28.23
2022-08-17T07:41:03.725Z,29.47
2022-08-17T07:43:39.542Z,28.03
2022-08-17T07:46:53.966Z,26.83
2022-08-17T07:49:24.392Z,25.17
2022-08-17T07:51:51.224Z,26.10
2022-08-17T07:54:21.565Z,25.17
2022-08-17T07:57:04.000Z,24.63
2022-08-17T07:59:35.825Z,23.87
2022-08-17T08:02:18.037Z,22.87
2022-08-17T08:05:06.738Z,22.00
2022-08-17T08:07:58.043Z,22.00
2022-08-17T08:10:35.674Z,21.00
2022-08-17T08:13:23.508Z,23.17
2022-08-17T08:15:54.766Z,24.67
2022-08-17T08:18:53.871Z,24.77
2022-08-17T08:21:34.353Z,23.10
2022-08-17T08:24:06.877Z,24.10
2022-08-17T08:27:02.188Z,23.63
2022-08-17T08:29:59.667Z,22.90
2022-08-17T08:32:48.640Z,24.00
2022-08-17T08:35:33.786Z,21.20
2022-08-17T08:38:14.900Z,22.27
2022-08-17T08:40:53.370Z,20.80
2022-08-17T08:43:41.306Z,20.33
2022-08-17T08:46:31.212Z,23.77
2022-08-17T08:49:39.269Z,23.97
2022-08-17T08:52:40.281Z,22.87
2022-08-17T08:55:20.376Z,23.03
2022-08-17T08:57:48.958Z,22.63
2022-08-17T09:00:19.230Z,21.40
2022-08-17T09:03:17.519Z,21.53
2022-08-17T09:06:06.844Z,20.30
2022-08-17T09:09:11.913Z,18.47
2022-08-17T09:12:01.357Z,16.73
2022-08-17T09:14:47.181Z,14.50
2022-08-17T09:17:18.464Z,11.53
2022-08-17T09:19:51.770Z,10.80
2022-08-17T09:22:33.398Z,15.23
2022-08-17T09:25:07.031Z,14.60
2022-08-17T09:27:44.306Z,16.10
2022-08-17T09:30:11.938Z,16.23
2022-08-17T09:32:43.998Z,17.03
2022-08-17T09:35:41.656Z,16.40
2022-08-17T09:38:20.304Z,16.33
2022-08-17T09:41:02.129Z,14.07
2022-08-17T09:43:31.688Z,11.00
2022-08-17T09:46:05.589Z,10.07
2022-08-17T09:48:55.421Z,8.47
2022-08-17T09:51:27.995Z,8.50
2022-08-17T09:54:01.737Z,7.83
2022-08-17T09:56:56.553Z,8.30
2022-08-17T10:00:16.103Z,9.87
2022-08-17T10:02:57.592Z,9.33
2022-08-17T10:05:28.414Z,7.20
2022-08-17T10:08:09.361Z,6.50
2022-08-17T10:10:43.456Z,10.10
2022-08-17T10:13:52.695Z,9.90
2022-08-17T10:16:46.503Z,6.67
2022-08-17T10:19:33.586Z,6.60
2022-08-17T10:22:34.914Z,8.23
2022-08-17T10:25:26.113Z,7.00
2022-08-17T10:28:07.494Z,7.73
2022-08-17T10:30:48.106Z,8.97
2022-08-17T10:33:23.624Z,7.97
2022-08-17T10:36:10.931Z,8.27
2022-08-17T10:38:47.314Z,7.30
2022-08-17T10:41:33.900Z,6.23
2022-08-17T10:44:38.064Z,7.03
2022-08-17T10:47:09.337Z,7.13
2022-08-17T10:49:49.534Z,7.30
2022-08-17T10:52:22.152Z,5.43
2022-08-17T10:54:51.562Z,6.30
2022-08-17T10:57:35.434Z,5.87
2022-08-17T11:00:27.437Z,5.77
2022-08-17T11:02:55.831Z,5.90
2022-08-17T11:05:43.827Z,5.30
2022-08-17T11:08:38.607Z,6.47
2022-08-17T11:11:35.969Z,7.50
2022-08-17T11:14:39.858Z,6.30
2022-08-17T11:17:21.546Z,7.40
2022-08-17T11:20:09.327Z,6.90
2022-08-17T11:22:35.762Z,7.67
2022-08-17T11:25:38.411Z,7.23
2022-08-17T11:28:08.672Z,7.50
2022-08-17T11:30:51.370Z,8.10
2022-08-17T11:33:29.890Z,7.20
2022-08-17T11:36:12.861Z,7.30
2022-08-17T11:38:46.654Z,7.80
2022-08-17T11:41:32.350Z,7.43
2022-08-17T11:44:04.611Z,8.03
2022-08-17T11:47:08.468Z,6.93
2022-08-17T11:50:32.328Z,7.83
2022-08-17T11:52:58.826Z,6.63
2022-08-17T11:55:39.396Z,7.33
2022-08-17T11:58:27.051Z,7.90
2022-08-17T12:00:56.671Z,6.60
2022-08-17T12:03:33.007Z,6.80
2022-08-17T12:06:04.464Z,7.70
2022-08-17T12:08:32.658Z,7.77
2022-08-17T12:11:04.114Z,6.33
2022-08-17T12:13:38.580Z,6.60
2022-08-17T12:16:07.297Z,7.10
2022-08-17T12:18:37.529Z,6.47
2022-08-17T12:21:25.847Z,6.73
2022-08-17T12:23:52.276Z,7.07
2022-08-17T12:26:22.692Z,6.67
2022-08-17T12:28:57.247Z,6.00
2022-08-17T12:31:47.218Z,6.03
2022-08-17T12:34:18.954Z,5.67
2022-08-17T12:36:47.181Z,6.40
2022-08-17T12:39:21.412Z,6.00
2022-08-17T12:41:56.306Z,5.00
2022-08-17T12:44:28.554Z,6.53
2022-08-17T12:47:04.602Z,6.57
2022-08-17T12:49:36.950Z,6.47
2022-08-17T12:52:23.651Z,6.00
2022-08-17T12:55:22.613Z,6.67
2022-08-17T12:57:58.401Z,7.00
2022-08-17T13:00:30.748Z,6.70
2022-08-17T13:03:02.637Z,6.30
2022-08-17T13:05:30.526Z,6.73
2022-08-17T13:07:59.273Z,6.27
2022-08-17T13:10:32.784Z,6.53
2022-08-17T13:13:04.892Z,6.83
2022-08-17T13:15:31.356Z,7.03
2022-08-17T13:18:06.826Z,6.10
2022-08-17T13:20:34.629Z,6.03
2022-08-17T13:23:11.478Z,6.50
2022-08-17T13:25:38.919Z,6.63
2022-08-17T13:28:05.394Z,6.70
2022-08-17T13:30:33.354Z,6.60
2022-08-17T13:33:04.092Z,6.50
2022-08-17T13:35:44.245Z,6.30
2022-08-17T13:38:39.475Z,6.83
2022-08-17T13:41:07.454Z,7.50
2022-08-17T13:43:40.048Z,6.83
2022-08-17T13:46:12.874Z,6.83
2022-08-17T13:48:39.654Z,7.27
2022-08-17T13:51:14.193Z,6.50
2022-08-17T13:53:40.638Z,6.67
2022-08-17T13:56:37.558Z,6.90
2022-08-17T13:59:01.516Z,7.53
2022-08-17T14:01:39.560Z,7.03
2022-08-17T14:04:19.969Z,7.90
2022-08-17T14:06:52.817Z,7.77
2022-08-17T14:09:26.931Z,7.80
2022-08-17T14:11:54.665Z,8.00
2022-08-17T14:14:23.324Z,8.10
2022-08-17T14:16:51.322Z,8.90
2022-08-17T14:19:18.127Z,8.37
2022-08-17T14:21:46.770Z,7.17
2022-08-17T14:24:28.524Z,8.63
2022-08-17T14:26:55.713Z,8.30
2022-08-17T14:29:23.766Z,9.30
2022-08-17T14:31:54.339Z,10.13
2022-08-17T14:34:22.706Z,9.60
2022-08-17T14:36:49.318Z,11.50
2022-08-17T14:39:16.491Z,10.30
2022-08-17T14:41:43.006Z,12.07
2022-08-17T14:44:13.076Z,11.67
2022-08-17T14:46:41.146Z,12.77
2022-08-17T14:49:08.914Z,12.87
2022-08-17T14:51:39.712Z,14.00
2022-08-17T14:54:10.568Z,13.47
2022-08-17T14:56:38.282Z,13.57
2022-08-17T14:59:05.048Z,15.67
2022-08-17T15:01:31.718Z,14.57
2022-08-17T15:04:01.031Z,14.07
2022-08-17T15:06:27.601Z,16.03
2022-08-17T15:08:54.493Z,16.13
2022-08-17T15:11:21.013Z,16.03
2022-08-17T15:13:52.875Z,18.97
2022-08-17T15:16:20.497Z,18.03
2022-08-17T15:18:47.179Z,17.83
2022-08-17T15:21:14.854Z,18.37
2022-08-17T15:23:41.438Z,17.40
2022-08-17T15:26:10.373Z,18.13
2022-08-17T15:28:37.721Z,18.70
2022-08-17T15:31:05.741Z,17.03
2022-08-17T15:33:32.636Z,21.20
2022-08-17T15:36:02.070Z,19.40
2022-08-17T15:38:29.385Z,19.93
2022-08-17T15:40:57.607Z,19.17
2022-08-17T15:43:32.475Z,20.13
2022-08-17T15:46:05.349Z,17.57
2022-08-17T15:48:43.013Z,18.93
2022-08-17T15:51:10.761Z,16.20
2022-08-17T15:53:37.826Z,14.67
2022-08-17T15:56:05.445Z,16.73
2022-08-17T15:58:36.126Z,19.50
2022-08-17T16:01:14.114Z,18.03
2022-08-17T16:04:03.827Z,18.13
2022-08-17T16:06:32.991Z,16.60
2022-08-17T16:09:00.450Z,19.20
2022-08-17T16:11:26.965Z,17.83
2022-08-17T16:13:55.128Z,17.50
2022-08-17T16:16:23.692Z,18.40
2022-08-17T16:18:53.659Z,17.03
2022-08-17T16:21:25.815Z,17.30
2022-08-17T16:24:05.417Z,17.23
2022-08-17T16:26:39.647Z,16.00
2022-08-17T16:29:06.632Z,14.73
2022-08-17T16:31:34.212Z,14.63
2022-08-17T16:34:16.427Z,14.83
2022-08-17T16:36:55.364Z,14.00
2022-08-17T16:39:24.559Z,14.37
2022-08-17T16:41:57.829Z,13.43
2022-08-17T16:44:25.703Z,12.50
2022-08-17T16:46:52.231Z,14.13
2022-08-17T16:49:36.238Z,12.57
2022-08-17T16:52:06.358Z,13.37
2022-08-17T16:54:33.473Z,11.20
2022-08-17T16:57:00.244Z,11.90
2022-08-17T16:59:31.818Z,12.97
2022-08-17T17:02:10.965Z,12.30
2022-08-17T17:04:51.970Z,11.50
2022-08-17T17:07:39.937Z,11.30
2022-08-17T17:10:15.682Z,11.13
2022-08-17T17:13:02.871Z,11.13
2022-08-17T17:15:41.437Z,11.17
2022-08-17T17:18:12.022Z,11.73
2022-08-17T17:20:45.853Z,11.00
2022-08-17T17:23:20.184Z,10.83
2022-08-17T17:26:03.617Z,11.43
2022-08-17T17:28:56.373Z,11.90
2022-08-17T17:31:25.711Z,11.80
2022-08-17T17:33:55.970Z,12.03
2022-08-17T17:36:26.984Z,12.23
2022-08-17T17:38:59.301Z,12.13
2022-08-17T17:41:43.327Z,11.73
2022-08-17T17:44:13.310Z,11.63
2022-08-17T17:46:48.660Z,11.50
2022-08-17T17:49:17.652Z,11.77
2022-08-17T17:52:06.281Z,11.67
2022-08-17T17:54:56.009Z,12.20
2022-08-17T17:57:42.220Z,11.07
2022-08-17T18:00:37.859Z,12.03
2022-08-17T18:03:25.534Z,11.07
2022-08-17T18:06:10.337Z,12.00
2022-08-17T18:08:57.962Z,11.37
2022-08-17T18:11:42.040Z,11.57
2022-08-17T18:14:27.203Z,11.60
2022-08-17T18:16:56.844Z,11.17
2022-08-17T18:19:25.612Z,10.70
2022-08-17T18:22:03.352Z,11.43
2022-08-17T18:24:37.854Z,9.73
2022-08-17T18:27:19.122Z,10.20
2022-08-17T18:29:47.462Z,10.10
2022-08-17T18:32:38.225Z,9.37
2022-08-17T18:35:16.550Z,8.83
2022-08-17T18:37:45.993Z,8.47
2022-08-17T18:40:19.523Z,8.43
2022-08-17T18:43:21.636Z,8.07
2022-08-17T18:45:50.433Z,7.03
2022-08-17T18:48:59.244Z,7.07
2022-08-17T18:51:41.780Z,7.67
2022-08-17T18:54:17.853Z,7.30
2022-08-17T18:56:55.933Z,7.33
2022-08-17T18:59:39.901Z,6.97
2022-08-17T19:02:18.195Z,7.80
2022-08-17T19:05:27.744Z,7.80
2022-08-17T19:07:55.048Z,7.43
2022-08-17T19:10:25.746Z,7.80
2022-08-17T19:13:00.493Z,8.10
2022-08-17T19:15:35.482Z,8.47
2022-08-17T19:18:47.363Z,8.27
2022-08-17T19:21:27.489Z,8.60
2022-08-17T19:23:59.424Z,9.00
2022-08-17T19:26:54.419Z,9.33
2022-08-17T19:29:25.609Z,9.73
2022-08-17T19:31:55.182Z,10.30
2022-08-17T19:34:30.051Z,10.43
2022-08-17T19:37:07.497Z,12.20
2022-08-17T19:39:55.962Z,12.60
2022-08-17T19:42:37.211Z,15.00
2022-08-17T19:45:12.226Z,17.27
2022-08-17T19:47:55.405Z,17.73
2022-08-17T19:50:32.050Z,16.40
2022-08-17T19:53:41.766Z,20.33
2022-08-17T19:56:21.367Z,21.07
2022-08-17T19:59:26.357Z,22.13
2022-08-17T20:02:21.139Z,23.53
2022-08-17T20:04:49.856Z,23.23
2022-08-17T20:07:26.546Z,17.03
2022-08-17T20:10:00.253Z,15.33
2022-08-17T20:12:30.806Z,15.00
2022-08-17T20:15:18.151Z,12.27
2022-08-17T20:17:46.446Z,11.97
2022-08-17T20:20:27.152Z,8.53
2022-08-17T20:23:06.038Z,8.23
2022-08-17T20:25:41.935Z,8.90
2022-08-17T20:28:30.609Z,8.97
2022-08-17T20:30:58.172Z,7.70
2022-08-17T20:33:29.823Z,8.70
2022-08-17T20:36:11.130Z,8.23
2022-08-17T20:38:43.870Z,9.87
2022-08-17T20:41:16.858Z,7.83
2022-08-17T20:44:04.911Z,6.87
2022-08-17T20:46:31.431Z,9.07
2022-08-17T20:49:14.701Z,9.70
2022-08-17T20:52:01.449Z,9.60
2022-08-17T20:54:42.774Z,11.23
2022-08-17T20:57:14.357Z,11.70
2022-08-17T20:59:44.044Z,13.83
2022-08-17T21:02:19.509Z,14.30
2022-08-17T21:04:56.310Z,13.47
2022-08-17T21:07:43.610Z,16.77
2022-08-17T21:10:16.020Z,19.67
2022-08-17T21:12:54.834Z,22.37
2022-08-17T21:15:35.445Z,25.33
2022-08-17T21:18:14.449Z,25.33
2022-08-17T21:21:06.692Z,22.77
2022-08-17T21:23:45.037Z,25.07
2022-08-17T21:26:30.601Z,22.87
2022-08-17T21:29:29.683Z,23.33
2022-08-17T21:32:05.244Z,23.67
2022-08-17T21:34:39.778Z,25.03
2022-08-17T21:37:29.682Z,25.57
2022-08-17T21:40:11.460Z,24.40
2022-08-17T21:42:43.928Z,22.53
2022-08-17T21:45:22.897Z,23.10
2022-08-17T21:48:20.169Z,22.43
2022-08-17T21:51:12.117Z,18.37
2022-08-17T21:53:49.507Z,20.57
2022-08-17T21:56:29.078Z,19.53
2022-08-17T21:59:00.759Z,17.47
2022-08-17T22:01:50.579Z,16.00
2022-08-17T22:04:32.254Z,14.03
2022-08-17T22:07:01.774Z,14.23
2022-08-17T22:09:34.198Z,12.50
2022-08-17T22:12:09.079Z,13.13
2022-08-17T22:14:52.755Z,12.13
2022-08-17T22:17:21.920Z,11.23
2022-08-17T22:20:01.365Z,12.03
2022-08-17T22:22:35.257Z,13.87
2022-08-17T22:25:05.733Z,12.87
2022-08-17T22:27:50.286Z,12.70
2022-08-17T22:30:32.118Z,14.00
2022-08-17T22:33:00.167Z,12.90
2022-08-17T22:35:43.656Z,12.50
2022-08-17T22:38:19.521Z,10.90
2022-08-17T22:40:47.341Z,11.87
2022-08-17T22:43:13.890Z,11.67
2022-08-17T22:48:17.820Z,12.07
2022-08-17T22:50:44.349Z,12.10
2022-08-17T22:53:38.466Z,11.00
2022-08-17T22:56:23.968Z,11.33
2022-08-17T22:59:15.662Z,9.43
2022-08-17T23:01:43.333Z,8.93
2022-08-17T23:04:12.877Z,8.40
2022-08-17T23:06:42.400Z,8.40
2022-08-17T23:09:09.778Z,8.93
2022-08-17T23:11:46.206Z,8.00
2022-08-17T23:14:19.198Z,8.33
2022-08-17T23:16:46.741Z,9.17
2022-08-17T23:19:18.709Z,9.57
2022-08-17T23:21:45.655Z,9.37
2022-08-17T23:24:17.473Z,9.30
2022-08-17T23:26:43.970Z,12.50
2022-08-17T23:29:10.843Z,11.37
2022-08-17T23:31:38.783Z,11.63
2022-08-17T23:34:15.143Z,12.03
2022-08-17T23:36:42.081Z,11.30
2022-08-17T23:39:08.782Z,12.80
2022-08-17T23:41:37.977Z,12.63
2022-08-17T23:44:07.026Z,13.13
2022-08-17T23:46:34.638Z,14.17
2022-08-17T23:49:01.241Z,14.27
2022-08-17T23:51:30.767Z,14.67
2022-08-17T23:54:08.240Z,12.27
2022-08-17T23:56:41.851Z,13.30
2022-08-17T23:59:08.334Z,14.50
